Time;durP1;ratioP1;P1;durP2;ratioP2;P2;SDS_P1;SDS_P2;PMS_P1;PMS_P2;Temp;Humidity;BMP_temperature;BMP_pressure;BME280_temperature;BME280_humidity;BME280_pressure;Samples;Min_cycle;Max_cycle;Signal;HPM_P1;HPM_P2
2022/11/11 00:00:06;;;;;;;11.25;8.58;;;;;;;9.71;90.55;95660.52;1567160;89;21176;-87
2022/11/11 00:02:53;;;;;;;13.55;8.75;;;;;;;9.75;90.20;95661.81;1573406;89;21048;-85
2022/11/11 00:05:39;;;;;;;15.93;10.55;;;;;;;9.71;90.50;95670.72;1557345;90;21078;-85
2022/11/11 00:08:24;;;;;;;14.98;11.03;;;;;;;9.65;91.00;95680.64;1564333;89;21046;-85
2022/11/11 00:11:12;;;;;;;18.40;12.07;;;;;;;9.59;91.70;95677.59;1561703;90;21788;-86
2022/11/11 00:13:58;;;;;;;15.53;11.12;;;;;;;9.59;92.28;95672.09;1573378;90;21549;-85
2022/11/11 00:25:55;;;;;;;;;;;;;;;9.54;93.59;95679.45;1554554;89;21685;-85
2022/11/11 00:28:41;;;;;;;20.57;12.98;;;;;;;9.52;94.12;95694.78;1568020;89;21142;-85
2022/11/11 00:31:27;;;;;;;19.87;14.18;;;;;;;9.59;94.61;95694.69;1570110;88;21087;-86
2022/11/11 00:34:12;;;;;;;21.55;13.78;;;;;;;9.66;94.88;95691.81;1565638;89;20988;-87
2022/11/11 00:37:00;;;;;;;21.97;14.80;;;;;;;9.74;94.77;95692.65;1573432;90;21130;-86
2022/11/11 00:39:46;;;;;;;24.63;14.75;;;;;;;9.79;94.58;95691.41;1552198;89;21603;-84
2022/11/11 00:42:31;;;;;;;23.70;15.93;;;;;;;9.82;94.43;95689.19;1558644;90;21141;-87
2022/11/11 00:45:16;;;;;;;23.55;16.10;;;;;;;9.81;93.74;95689.01;1539745;91;21075;-86
2022/11/11 00:51:06;;;;;;;28.27;18.48;;;;;;;9.77;93.81;95673.19;1580152;90;21037;-86
2022/11/11 00:53:51;;;;;;;45.55;20.97;;;;;;;9.79;94.26;95676.29;1592917;88;21137;-86
2022/11/11 00:56:38;;;;;;;35.23;20.55;;;;;;;9.76;93.82;95669.65;1588099;89;21033;-87
2022/11/11 00:59:23;;;;;;;44.40;21.37;;;;;;;9.71;93.69;95669.34;1578682;88;21538;-86
2022/11/11 01:02:09;;;;;;;46.35;21.90;;;;;;;9.66;93.85;95661.59;1585554;88;21026;-87
2022/11/11 01:04:54;;;;;;;42.60;21.62;;;;;;;9.63;94.59;95661.05;1592564;88;20947;-87
2022/11/11 01:07:38;;;;;;;44.00;21.60;;;;;;;9.67;94.62;95668.64;1595083;87;20932;-86
2022/11/11 01:10:38;;;;;;;72.17;31.90;;;;;;;9.70;94.36;95658.17;1586803;88;21151;-85
2022/11/11 01:13:30;;;;;;;48.17;24.50;;;;;;;9.68;94.33;95658.61;1584869;89;21041;-86
2022/11/11 01:16:22;;;;;;;55.80;24.55;;;;;;;9.75;94.85;95661.81;1591974;89;20972;-88
2022/11/11 01:19:07;;;;;;;48.42;23.67;;;;;;;9.83;94.61;95667.38;1586596;89;21090;-86
2022/11/11 01:21:52;;;;;;;70.20;40.50;;;;;;;9.85;94.37;95667.15;1588574;89;21047;-86
2022/11/11 01:24:39;;;;;;;49.77;29.60;;;;;;;9.84;93.57;95669.69;1590123;88;21257;-86
2022/11/11 01:27:24;;;;;;;46.65;27.05;;;;;;;9.84;93.56;95660.68;1587645;88;21062;-86
2022/11/11 01:30:12;;;;;;;60.23;34.40;;;;;;;9.81;93.34;95672.52;1590764;88;21176;-87
2022/11/11 01:32:57;;;;;;;49.42;29.98;;;;;;;9.76;93.06;95678.50;1609314;87;20962;-87
2022/11/11 01:35:42;;;;;;;54.75;27.82;;;;;;;9.71;93.57;95672.09;1570278;89;21005;-86
2022/11/11 01:38:28;;;;;;;37.88;21.93;;;;;;;9.72;93.52;95680.52;1596345;89;21143;-87
2022/11/11 01:44:21;;;;;;;32.10;19.12;;;;;;;9.57;93.27;95680.56;1525413;92;21132;-88
2022/11/11 01:47:06;;;;;;;27.85;16.67;;;;;;;9.49;93.77;95681.89;1532742;92;21081;-86
2022/11/11 01:49:59;;;;;;;26.45;16.32;;;;;;;9.47;93.87;95696.03;1557143;89;21055;-86
2022/11/11 01:52:46;;;;;;;26.40;15.53;;;;;;;9.42;93.67;95691.02;1452749;96;21231;-85
2022/11/11 01:55:31;;;;;;;28.75;17.42;;;;;;;9.37;93.54;95696.20;1427485;96;21054;-85
2022/11/11 01:58:17;;;;;;;25.48;17.25;;;;;;;9.26;93.54;95693.61;1461963;96;21049;-87
2022/11/11 02:01:02;;;;;;;31.55;19.02;;;;;;;9.16;94.01;95692.41;1455358;97;21164;-86
2022/11/11 02:06:58;;;;;;;27.58;17.12;;;;;;;9.23;95.10;95697.20;1456915;96;21305;-87
2022/11/11 02:09:45;;;;;;;26.77;16.62;;;;;;;9.27;94.94;95705.39;1431767;99;21182;-85
2022/11/11 02:15:35;;;;;;;;;;;;;;;9.23;94.98;95701.31;1424965;98;21115;-87
2022/11/11 02:18:20;;;;;;;30.80;17.32;;;;;;;9.16;95.13;95712.99;1421362;97;20198;-87
2022/11/11 02:21:06;;;;;;;39.42;24.23;;;;;;;9.14;95.51;95712.63;1487705;94;21187;-86
2022/11/11 02:24:10;;;;;;;39.60;24.23;;;;;;;9.16;95.63;95708.30;1500904;93;21029;-86
2022/11/11 02:26:55;;;;;;;48.90;25.02;;;;;;;9.19;95.59;95706.67;1460415;95;21120;-86
2022/11/11 02:29:40;;;;;;;48.90;28.70;;;;;;;9.19;95.57;95712.16;1484062;94;21074;-86
2022/11/11 02:32:25;;;;;;;46.88;29.02;;;;;;;9.21;95.62;95715.30;1522554;92;21025;-86
2022/11/11 02:35:27;;;;;;;53.13;34.18;;;;;;;9.17;95.63;95717.30;1532295;92;21983;-86
2022/11/11 02:38:13;;;;;;;58.02;41.23;;;;;;;9.20;96.15;95710.39;1551464;90;21017;-86
2022/11/11 02:44:03;;;;;;;44.40;29.18;;;;;;;9.37;95.71;95711.30;1498860;94;22064;-85
2022/11/11 02:46:48;;;;;;;37.73;26.62;;;;;;;9.34;95.35;95719.00;1493828;95;21054;-87
2022/11/11 02:49:33;;;;;;;41.02;26.65;;;;;;;9.29;95.23;95716.13;1571370;88;21841;-87
2022/11/11 02:52:18;;;;;;;55.85;29.48;;;;;;;9.31;95.48;95718.46;1599792;88;20981;-86
2022/11/11 02:55:07;;;;;;;48.50;25.02;;;;;;;9.34;95.34;95725.28;1570494;88;21037;-86
2022/11/11 02:57:51;;;;;;;47.90;29.57;;;;;;;9.33;94.96;95722.36;1584614;86;21032;-86
2022/11/11 03:00:36;;;;;;;58.28;35.55;;;;;;;9.34;95.55;95723.12;1563850;90;21076;-85
2022/11/11 03:03:21;;;;;;;60.90;36.00;;;;;;;9.38;95.47;95723.84;1584378;89;21483;-86
2022/11/11 03:06:06;;;;;;;45.20;26.07;;;;;;;9.40;94.89;95728.34;1599976;88;20999;-86
2022/11/11 03:08:52;;;;;;;21.07;16.20;;;;;;;9.39;94.70;95726.19;1580578;88;21026;-86
2022/11/11 03:11:39;;;;;;;13.28;9.48;;;;;;;9.38;94.36;95730.13;1607898;89;21022;-86
2022/11/11 03:14:25;;;;;;;9.70;8.03;;;;;;;9.33;93.75;95729.81;1604138;87;21014;-85
2022/11/11 03:23:20;;;;;;;6.75;5.05;;;;;;;9.20;93.55;95737.05;1587977;88;21090;-86
2022/11/11 03:26:05;;;;;;;7.35;6.55;;;;;;;9.25;93.42;95739.35;1601155;88;21131;-87
2022/11/11 03:28:50;;;;;;;5.40;4.90;;;;;;;9.18;92.77;95742.97;1605176;88;21041;-85
2022/11/11 03:31:37;;;;;;;5.65;4.80;;;;;;;9.09;92.33;95741.93;1594971;88;20986;-84
2022/11/11 03:34:22;;;;;;;16.23;8.75;;;;;;;8.97;92.14;95744.64;1597952;88;21007;-84
2022/11/11 03:40:13;;;;;;;7.65;6.55;;;;;;;8.92;92.71;95745.08;1601498;86;20981;-86
2022/11/11 03:42:58;;;;;;;7.92;6.75;;;;;;;8.97;92.99;95752.08;1593522;87;20962;-86
2022/11/11 03:45:43;;;;;;;9.83;8.60;;;;;;;9.03;93.12;95749.84;1595037;88;21549;-86
2022/11/11 03:48:31;;;;;;;10.50;8.88;;;;;;;9.09;92.92;95747.42;1596761;86;20949;-85
2022/11/11 03:51:16;;;;;;;20.40;13.25;;;;;;;9.15;92.73;95751.25;1601272;86;20966;-87
2022/11/11 03:54:02;;;;;;;10.43;7.90;;;;;;;9.16;92.02;95754.17;1598941;86;20963;-85
2022/11/11 03:56:47;;;;;;;11.05;7.20;;;;;;;9.11;91.91;95747.78;1605891;88;20989;-85
2022/11/11 03:59:34;;;;;;;17.65;12.15;;;;;;;9.10;92.00;95755.22;1590897;87;22125;-87
2022/11/11 04:11:27;;;;;;;30.10;15.40;;;;;;;8.95;91.44;95744.28;1581797;89;21040;-84
2022/11/11 04:17:17;;;;;;;26.57;15.08;;;;;;;8.74;92.12;95756.11;1557402;90;21013;-86
2022/11/11 04:23:12;;;;;;;14.65;9.85;;;;;;;8.71;92.38;95758.88;1484903;96;21112;-85
2022/11/11 04:26:01;;;;;;;17.15;10.25;;;;;;;8.61;92.34;95745.48;1508926;94;21309;-85
2022/11/11 04:34:55;;;;;;;;;;;;;;;8.67;93.21;95760.31;1498060;94;21267;-85
2022/11/11 04:37:50;;;;;;;23.02;15.13;;;;;;;8.75;93.20;95765.89;1498883;93;20180;-85
2022/11/11 04:46:33;;;;;;;24.67;15.10;;;;;;;8.65;91.84;95762.66;1525909;93;21632;-86
2022/11/11 04:49:17;;;;;;;25.77;14.23;;;;;;;8.57;91.70;95763.16;1506535;94;21065;-86
2022/11/11 04:58:11;;;;;;;27.93;15.00;;;;;;;8.48;92.47;95776.02;1536023;91;21116;-86
2022/11/11 05:00:56;;;;;;;24.55;15.03;;;;;;;8.53;92.95;95785.16;1539193;91;21130;-86
2022/11/11 05:03:41;;;;;;;27.22;15.95;;;;;;;8.66;93.01;95790.28;1546832;90;21050;-88
2022/11/11 05:09:31;;;;;;;27.07;15.90;;;;;;;8.93;92.42;95798.01;1544066;90;21306;-87
2022/11/11 05:12:17;;;;;;;29.60;18.62;;;;;;;9.04;91.93;95790.43;1544124;92;21907;-88
2022/11/11 05:21:20;;;;;;;49.75;33.92;;;;;;;9.30;89.91;95803.41;1581557;89;21147;-87
2022/11/11 05:27:13;;;;;;;21.02;15.05;;;;;;;9.24;89.37;95797.59;1500724;95;21304;-87
2022/11/11 05:29:58;;;;;;;20.57;15.10;;;;;;;9.23;89.51;95807.63;1494667;95;21075;-88
2022/11/11 05:32:43;;;;;;;30.32;18.15;;;;;;;9.22;89.18;95805.47;1503971;94;21051;-88
2022/11/11 05:35:29;;;;;;;30.92;22.35;;;;;;;9.25;88.98;95809.37;1458261;95;39698;-88
2022/11/11 05:38:20;;;;;;;36.83;22.05;;;;;;;9.31;88.53;95808.50;1493150;95;21601;-85
2022/11/11 05:41:10;;;;;;;30.68;19.75;;;;;;;9.29;88.37;95814.21;1499104;94;21261;-87
2022/11/11 05:43:55;;;;;;;31.00;20.43;;;;;;;9.24;88.63;95820.17;1500657;94;21080;-80
2022/11/11 05:46:40;;;;;;;30.32;20.55;;;;;;;9.20;88.44;95822.16;1494809;95;21098;-80
2022/11/11 05:49:26;;;;;;;21.50;15.58;;;;;;;9.17;88.72;95828.48;1499263;94;21028;-85
2022/11/11 05:52:11;;;;;;;32.08;21.70;;;;;;;9.22;89.14;95829.41;1497515;94;21104;-83
2022/11/11 05:54:57;;;;;;;30.45;21.48;;;;;;;9.32;89.09;95835.35;1517602;93;21922;-85
2022/11/11 05:57:42;;;;;;;23.73;18.70;;;;;;;9.38;89.14;95843.30;1517747;93;21051;-84
2022/11/11 06:00:27;;;;;;;24.47;16.65;;;;;;;9.48;88.82;95849.27;1517196;94;21104;-83
2022/11/11 06:03:12;;;;;;;29.40;18.82;;;;;;;9.49;88.23;95855.73;1517207;94;21574;-84
2022/11/11 06:05:57;;;;;;;24.23;19.65;;;;;;;9.49;87.93;95862.59;1516819;94;21140;-83
2022/11/11 06:08:42;;;;;;;24.25;19.12;;;;;;;9.47;87.86;95864.19;1498153;94;21182;-83
2022/11/11 06:11:27;;;;;;;39.88;26.97;;;;;;;9.47;87.99;95861.44;1508136;92;21219;-84
2022/11/11 06:14:15;;;;;;;47.95;32.40;;;;;;;9.46;87.62;95864.01;1512822;93;21126;-82
2022/11/11 06:17:00;;;;;;;41.58;29.48;;;;;;;9.31;87.69;95864.00;1509582;94;21211;-82
2022/11/11 06:19:47;;;;;;;42.20;31.07;;;;;;;9.30;88.37;95869.31;1525814;88;21031;-83
2022/11/11 06:28:53;;;;;;;44.77;32.75;;;;;;;9.41;87.92;95874.84;1588914;87;21670;-83
2022/11/11 06:31:39;;;;;;;58.35;38.85;;;;;;;9.47;88.39;95875.17;1595082;88;21556;-85
2022/11/11 06:34:27;;;;;;;51.37;35.33;;;;;;;9.57;88.21;95885.23;1584446;87;21096;-88
2022/11/11 06:37:15;;;;;;;42.10;32.50;;;;;;;9.63;87.88;95884.97;1591727;87;22082;-87
2022/11/11 06:40:25;;;;;;;35.20;28.23;;;;;;;9.71;87.58;95878.17;1622127;87;20970;-83
2022/11/11 06:43:18;;;;;;;35.95;26.15;;;;;;;9.75;87.75;95880.27;1629872;87;21010;-88
2022/11/11 06:46:27;;;;;;;38.08;29.25;;;;;;;9.83;87.19;95877.01;1611567;87;21092;-86
2022/11/11 06:49:22;;;;;;;47.60;37.38;;;;;;;9.89;87.34;95885.57;1492553;95;21116;-91
2022/11/11 06:52:24;;;;;;;44.48;34.58;;;;;;;9.97;86.82;95892.55;1504330;95;21340;-91
2022/11/11 06:55:14;;;;;;;66.65;44.00;;;;;;;10.03;86.16;95884.03;1502024;95;21039;-85
2022/11/11 06:58:15;;;;;;;52.08;38.15;;;;;;;10.00;85.65;95893.08;1515204;92;21000;-86
2022/11/11 07:03:39;;;;;;;54.90;39.75;;;;;;;10.05;85.99;95896.77;1504896;94;21117;-88
2022/11/11 07:06:36;;;;;;;47.20;35.28;;;;;;;10.14;85.91;95899.78;1513354;94;21906;-89
2022/11/11 07:09:25;;;;;;;52.65;37.05;;;;;;;10.24;85.04;95901.57;1508427;94;21050;-78
2022/11/11 07:12:18;;;;;;;46.28;32.83;;;;;;;10.18;84.47;95908.75;1493870;95;21573;-87
2022/11/11 07:15:14;;;;;;;41.35;31.17;;;;;;;10.02;84.22;95900.34;1494218;95;21219;-89
2022/11/11 07:18:10;;;;;;;44.63;30.37;;;;;;;9.85;84.41;95898.59;1541140;92;21062;-90
2022/11/11 07:21:09;;;;;;;36.58;27.80;;;;;;;9.72;85.10;95898.38;1413277;100;21108;-92
2022/11/11 07:24:09;;;;;;;46.95;33.02;;;;;;;9.69;85.65;95904.71;1435612;98;21134;-88
2022/11/11 07:27:00;;;;;;;56.75;35.23;;;;;;;9.70;85.96;95902.73;1349043;104;21194;-88
2022/11/11 07:30:04;;;;;;;67.15;43.05;;;;;;;9.70;86.19;95898.60;1331784;105;21118;-89
2022/11/11 07:32:55;;;;;;;68.70;45.05;;;;;;;9.69;86.17;95901.96;1340358;105;21693;-85
2022/11/11 07:36:01;;;;;;;62.35;40.10;;;;;;;9.75;86.21;95907.17;1319174;107;21118;-86
2022/11/11 07:41:51;;;;;;;45.98;33.30;;;;;;;9.93;86.34;95900.83;1190230;117;21336;-82
2022/11/11 07:44:38;;;;;;;38.02;26.90;;;;;;;10.00;85.67;95902.70;1200485;117;21220;-84
2022/11/11 07:51:06;;;;;;;29.92;20.37;;;;;;;10.06;84.78;95895.56;1219475;114;21272;-91
2022/11/11 07:54:09;;;;;;;29.75;20.72;;;;;;;10.02;84.45;95884.61;1242241;113;21252;-88
2022/11/11 07:57:36;;;;;;;;;;;;;;;;;;;;;
2022/11/11 08:13:53;;;;;;;35.20;23.25;;;;;;;10.32;83.67;95895.55;1113023;127;21270;-92
2022/11/11 08:17:44;;;;;;;41.88;25.05;;;;;;;10.17;83.06;95905.82;;;;
2022/11/11 08:36:15;;;;;;;;;;;;;;;;;;;;;
2022/11/11 08:43:34;;;;;;;42.55;26.30;;;;;;;10.25;83.85;95945.17;1179947;119;21171;-91
2022/11/11 08:47:36;;;;;;;42.43;26.60;;;;;;;10.25;84.17;95949.30;1259306;111;21249;-91
2022/11/11 08:59:24;;;;;;;24.90;16.12;;;;;;;10.28;84.10;95949.05;1144973;124;21202;-91
2022/11/11 09:02:27;;;;;;;21.20;13.58;;;;;;;10.21;83.61;95965.08;1145914;123;21370;-87
2022/11/11 09:05:23;;;;;;;14.80;11.10;;;;;;;10.21;83.69;95967.83;1178838;120;21191;-88
2022/11/11 09:08:20;;;;;;;16.50;10.88;;;;;;;10.28;83.42;95958.67;1191017;118;21232;-90
2022/11/11 09:11:15;;;;;;;19.62;16.12;;;;;;;10.31;82.32;95954.50;1187771;119;21744;-89
2022/11/11 09:13:59;;;;;;;18.40;13.88;;;;;;;10.36;82.82;95958.77;1206567;116;21758;-88
2022/11/11 09:17:10;;;;;;;17.10;11.93;;;;;;;10.42;82.92;95959.26;1211157;114;21212;-90
2022/11/11 09:20:18;;;;;;;18.07;12.18;;;;;;;10.43;81.57;95953.94;1176968;119;21252;-90
2022/11/11 09:23:03;;;;;;;18.12;11.95;;;;;;;10.44;81.34;95943.69;1170500;119;21237;-86
2022/11/11 09:26:02;;;;;;;29.77;17.50;;;;;;;10.51;80.99;95948.48;1199717;116;21351;-86
2022/11/11 09:32:07;;;;;;;44.60;24.87;;;;;;;10.67;80.94;95940.95;1377661;100;21206;-90
2022/11/11 09:34:59;;;;;;;39.65;22.07;;;;;;;10.69;81.42;95941.34;1395473;98;21218;-90
2022/11/11 09:38:17;;;;;;;30.80;19.62;;;;;;;10.74;81.45;95936.11;1413504;99;21085;-90
2022/11/11 09:41:39;;;;;;;;;;;;;;;;;;;;;
2022/11/11 09:45:15;;;;;;;48.33;27.62;;;;;;;11.06;80.24;95924.73;1349690;101;21122;-89
2022/11/11 09:48:47;;;;;;;44.55;30.17;;;;;;;11.31;80.33;95923.66;1367120;102;21078;-90
2022/11/11 09:51:56;;;;;;;46.18;27.90;;;;;;;11.55;80.37;95919.62;1347017;103;21091;-93
2022/11/11 09:55:05;;;;;;;41.68;25.50;;;;;;;11.76;79.45;95915.11;1311540;106;21267;-89
2022/11/11 09:58:07;;;;;;;;;;;;;;;;;;;;;
2022/11/11 10:01:10;;;;;;;;;;;;;;;;;;;;;
2022/11/11 10:10:59;;;;;;;;;;;;;;;;;;;;;
2022/11/11 10:14:02;;;;;;;;;;;;;;;;;;;;;
2022/11/11 10:17:30;;;;;;;13.58;5.90;;;;;;;12.40;66.20;95887.62;1296375;108;21645;-87
2022/11/11 10:20:36;;;;;;;5.78;5.10;;;;;;;12.36;65.14;95880.63;1303511;106;21148;-89
2022/11/11 10:23:31;;;;;;;7.92;5.25;;;;;;;12.34;63.29;95882.45;1297244;109;21690;-92
2022/11/11 10:26:22;;;;;;;11.70;5.45;;;;;;;12.29;62.94;95884.33;1265146;108;21161;-90
2022/11/11 10:29:20;;;;;;;15.93;5.75;;;;;;;12.25;62.53;95878.73;1269807;111;21120;-88
2022/11/11 10:32:24;;;;;;;10.65;5.42;;;;;;;12.27;62.48;95876.32;1290038;108;21048;-89
2022/11/11 10:35:38;;;;;;;8.35;5.58;;;;;;;12.35;61.76;95877.10;1281999;110;21260;-88
2022/11/11 10:38:57;;;;;;;11.63;6.17;;;;;;;12.38;61.55;95877.61;1281749;110;21210;-91
2022/11/11 10:41:47;;;;;;;9.00;5.90;;;;;;;12.33;62.02;95871.23;1293597;108;21136;-91
2022/11/11 10:44:36;;;;;;;8.73;5.50;;;;;;;12.31;61.84;95876.42;1289517;106;21346;-91
2022/11/11 10:47:44;;;;;;;9.35;7.45;;;;;;;12.29;61.73;95862.25;1282657;106;21474;-91
2022/11/11 10:50:40;;;;;;;10.78;7.83;;;;;;;12.22;61.33;95854.73;1274378;108;21292;-91
2022/11/11 10:54:00;;;;;;;9.00;6.00;;;;;;;12.12;61.68;95855.78;1280337;109;21141;-91
2022/11/11 10:57:05;;;;;;;9.20;5.33;;;;;;;12.10;61.71;95856.82;1288353;108;21116;-91
2022/11/11 11:13:16;;;;;;;21.93;4.42;;;;;;;12.20;60.10;95837.84;1350506;106;21134;-90
2022/11/11 11:16:21;;;;;;;11.55;4.50;;;;;;;12.25;59.90;95839.49;1336809;104;21105;-88
2022/11/11 11:29:33;;;;;;;;;;;;;;;;;;;;;
2022/11/11 11:41:41;;;;;;;10.63;3.98;;;;;;;13.06;54.59;95838.20;1222759;114;21133;-90
2022/11/11 11:44:37;;;;;;;21.00;4.60;;;;;;;12.87;54.87;95841.23;1220729;114;21250;-92
